createdAt,value
2016-05-20T00:00:34.066Z,75.78
2016-05-20T00:01:34.116Z,76.35
2016-05-20T00:02:34.118Z,76.16
2016-05-20T00:03:34.137Z,76.25
2016-05-20T00:04:34.014Z,76.06
2016-05-20T00:05:34.173Z,76.16
2016-05-20T00:06:34.192Z,76.16
2016-05-20T00:07:34.210Z,75.68
2016-05-20T00:08:34.228Z,76.25
2016-05-20T00:09:34.637Z,76.16
2016-05-20T00:10:34.265Z,75.96
2016-05-20T00:11:34.267Z,76.16
2016-05-20T00:12:34.302Z,75.87
2016-05-20T00:13:34.319Z,75.96
2016-05-20T00:14:34.323Z,76.06
2016-05-20T00:15:34.372Z,75.87
2016-05-20T00:16:34.375Z,76.16
2016-05-20T00:17:34.378Z,76.25
2016-05-20T00:18:34.411Z,76.16
2016-05-20T00:19:34.399Z,76.64
2016-05-20T00:20:34.433Z,76.16
2016-05-20T00:21:34.451Z,76.54
2016-05-20T00:22:34.469Z,76.35
2016-05-20T00:23:34.488Z,76.73
2016-05-20T00:24:34.505Z,76.73
2016-05-20T00:25:34.524Z,76.64
2016-05-20T00:26:34.526Z,76.54
2016-05-20T00:27:34.560Z,76.35
2016-05-20T00:28:34.579Z,76.73
2016-05-20T00:29:34.582Z,76.54
2016-05-20T00:30:34.616Z,76.73
2016-05-20T00:31:34.618Z,76.73
2016-05-20T00:32:34.481Z,76.25
2016-05-20T00:33:34.655Z,76.54
2016-05-20T00:34:34.674Z,76.92
2016-05-20T00:35:34.692Z,76.64
2016-05-20T00:36:34.695Z,76.44
2016-05-20T00:37:34.712Z,76.92
2016-05-20T00:38:34.747Z,76.73
2016-05-20T00:39:35.031Z,76.92
2016-05-20T00:40:34.798Z,76.92
2016-05-20T00:41:34.817Z,77.07
2016-05-20T00:42:34.819Z,76.88
2016-05-20T00:43:34.822Z,77.07
2016-05-20T00:44:34.857Z,76.88
2016-05-20T00:45:34.859Z,77.07
2016-05-20T00:46:34.877Z,77.17
2016-05-20T00:47:34.724Z,77.26
2016-05-20T00:48:34.914Z,77.26
2016-05-20T00:49:34.777Z,77.26
2016-05-20T00:50:34.935Z,77.17
2016-05-20T00:51:34.953Z,77.36
2016-05-20T00:52:35.003Z,77.36
2016-05-20T00:53:34.990Z,77.17
2016-05-20T00:54:35.024Z,77.45
2016-05-20T00:55:35.043Z,77.45
2016-05-20T00:56:34.904Z,77.74
2016-05-20T00:57:34.907Z,77.74
2016-05-20T00:58:35.082Z,78.03
2016-05-20T00:59:35.100Z,77.64
2016-05-20T01:00:35.118Z,77.64
2016-05-20T01:01:35.137Z,77.74
2016-05-20T01:02:35.155Z,77.93
2016-05-20T01:03:35.174Z,77.93
2016-05-20T01:04:35.176Z,77.64
2016-05-20T01:05:35.101Z,77.55
2016-05-20T01:06:35.243Z,77.93
2016-05-20T01:07:35.231Z,77.93
2016-05-20T01:08:35.249Z,77.55
2016-05-20T01:09:35.345Z,77.64
2016-05-20T01:10:35.286Z,77.55
2016-05-20T01:11:35.319Z,77.74
2016-05-20T01:12:35.166Z,77.64
2016-05-20T01:13:35.342Z,77.36
2016-05-20T01:14:35.343Z,77.36
2016-05-20T01:15:35.392Z,77.55
2016-05-20T01:16:35.395Z,77.36
2016-05-20T01:17:35.398Z,77.55
2016-05-20T01:18:35.417Z,77.64
2016-05-20T01:19:35.450Z,77.36
2016-05-20T01:20:35.297Z,76.98
2016-05-20T01:21:35.471Z,77.07
2016-05-20T01:22:35.505Z,76.88
2016-05-20T01:23:35.508Z,77.17
2016-05-20T01:24:35.510Z,77.17
2016-05-20T01:25:35.373Z,77.36
2016-05-20T01:26:35.563Z,77.07
2016-05-20T01:27:35.582Z,77.07
2016-05-20T01:28:35.585Z,77.26
2016-05-20T01:29:35.446Z,77.26
2016-05-20T01:30:35.621Z,77.45
2016-05-20T01:31:35.655Z,76.88
2016-05-20T01:32:35.688Z,76.88
2016-05-20T01:33:35.691Z,76.69
2016-05-20T01:34:35.679Z,76.5
2016-05-20T01:35:35.556Z,76.5
2016-05-20T01:36:35.731Z,76.59
2016-05-20T01:37:35.765Z,76.31
2016-05-20T01:38:35.751Z,76.4
2016-05-20T01:39:35.629Z,76.4
2016-05-20T01:40:35.803Z,76.5
2016-05-20T01:41:35.823Z,76.21
2016-05-20T01:42:35.826Z,75.84
2016-05-20T01:43:35.842Z,76.03
2016-05-20T01:44:35.878Z,76.5
2016-05-20T01:45:35.895Z,76.21
2016-05-20T01:46:35.898Z,76.12
2016-05-20T01:47:35.917Z,75.84
2016-05-20T01:48:35.935Z,75.84
2016-05-20T01:49:35.953Z,76.03
2016-05-20T01:50:35.971Z,76.03
2016-05-20T01:51:35.974Z,76.12
2016-05-20T01:52:35.992Z,76.03
2016-05-20T01:53:36.026Z,76.03
2016-05-20T01:54:36.029Z,75.64
2016-05-20T01:55:36.063Z,75.55
2016-05-20T01:56:36.082Z,75.07
2016-05-20T01:57:36.084Z,74.98
2016-05-20T01:58:36.102Z,75.07
2016-05-20T01:59:36.121Z,75.36
2016-05-20T02:00:36.139Z,75.36
2016-05-20T02:01:36.157Z,74.79
2016-05-20T02:02:36.176Z,75.07
2016-05-20T02:03:36.037Z,74.6
2016-05-20T02:04:36.212Z,74.69
2016-05-20T02:05:36.059Z,74.79
2016-05-20T02:06:36.248Z,74.63
2016-05-20T02:07:36.267Z,74.69
2016-05-20T02:08:36.270Z,74.79
2016-05-20T02:09:36.570Z,74.79
2016-05-20T02:10:36.323Z,75.07
2016-05-20T02:11:36.326Z,74.44
2016-05-20T02:12:36.343Z,74.54
2016-05-20T02:13:36.190Z,74.31
2016-05-20T02:14:36.364Z,74.21
2016-05-20T02:15:36.382Z,74.5
2016-05-20T02:16:36.401Z,74.54
2016-05-20T02:17:36.419Z,74.06
2016-05-20T02:18:36.437Z,73.87
2016-05-20T02:19:36.456Z,74.06
2016-05-20T02:20:36.489Z,73.77
2016-05-20T02:21:36.492Z,74.06
2016-05-20T02:22:36.510Z,73.49
2016-05-20T02:23:36.530Z,73.3
2016-05-20T02:24:36.625Z,73.49
2016-05-20T02:25:36.566Z,73.21
2016-05-20T02:26:36.569Z,73.39
2016-05-20T02:27:36.602Z,73.21
2016-05-20T02:28:36.621Z,73.01
2016-05-20T02:29:36.482Z,73.21
2016-05-20T02:30:36.657Z,73.21
2016-05-20T02:31:36.676Z,72.72
2016-05-20T02:32:36.693Z,72.34
2016-05-20T02:33:36.759Z,71.96
2016-05-20T02:34:36.714Z,72.53
2016-05-20T02:35:36.748Z,72.34
2016-05-20T02:36:36.751Z,72.06
2016-05-20T02:37:36.832Z,72.63
2016-05-20T02:38:36.773Z,72.06
2016-05-20T02:39:36.885Z,72.06
2016-05-20T02:40:36.809Z,71.96
2016-05-20T02:41:36.687Z,71.96
2016-05-20T02:42:36.846Z,71.87
2016-05-20T02:43:36.879Z,72.25
2016-05-20T02:44:36.898Z,71.87
2016-05-20T02:45:36.744Z,71.68
2016-05-20T02:46:36.934Z,71.68
2016-05-20T02:47:36.937Z,71.77
2016-05-20T02:48:36.956Z,71.58
2016-05-20T02:49:36.974Z,71.58
2016-05-20T02:50:36.992Z,71.39
2016-05-20T02:51:37.011Z,71.58
2016-05-20T02:52:37.045Z,71.48
2016-05-20T02:53:37.047Z,71.11
2016-05-20T02:54:36.909Z,70.92
2016-05-20T02:55:37.084Z,70.92
2016-05-20T02:56:37.102Z,70.63
2016-05-20T02:57:37.121Z,70.44
2016-05-20T02:58:37.138Z,70.53
2016-05-20T02:59:37.001Z,70.63
2016-05-20T03:00:37.160Z,70.63
2016-05-20T03:01:37.178Z,70.63
2016-05-20T03:02:37.197Z,69.87
2016-05-20T03:03:37.198Z,70.67
2016-05-20T03:04:37.249Z,70.47
2016-05-20T03:05:37.251Z,69.81
2016-05-20T03:06:37.254Z,69.9
2016-05-20T03:07:37.288Z,69.62
2016-05-20T03:08:37.306Z,69.33
2016-05-20T03:09:37.231Z,70.09
2016-05-20T03:10:37.343Z,69.23
2016-05-20T03:11:37.361Z,69.33
2016-05-20T03:12:37.364Z,68.47
2016-05-20T03:13:37.397Z,68.85
2016-05-20T03:14:37.259Z,68.85
2016-05-20T03:15:37.420Z,69.14
2016-05-20T03:16:37.281Z,68.66
2016-05-20T03:17:37.455Z,68.76
2016-05-20T03:18:37.474Z,68.57
2016-05-20T03:19:37.492Z,68.28
2016-05-20T03:20:37.510Z,68.28
2016-05-20T03:21:37.528Z,68.57
2016-05-20T03:22:37.547Z,68.18
2016-05-20T03:23:37.565Z,68.09
2016-05-20T03:24:37.708Z,68.18
2016-05-20T03:25:37.603Z,67.8
2016-05-20T03:26:37.635Z,67.8
2016-05-20T03:27:37.638Z,67.61
2016-05-20T03:28:37.657Z,67.61
2016-05-20T03:29:37.660Z,67.23
2016-05-20T03:30:37.694Z,66.75
2016-05-20T03:31:37.555Z,66.85
2016-05-20T03:32:37.715Z,66.75
2016-05-20T03:33:37.732Z,66.75
2016-05-20T03:34:37.751Z,66.56
2016-05-20T03:35:37.769Z,66.47
2016-05-20T03:36:37.631Z,66.56
2016-05-20T03:37:37.806Z,67.04
2016-05-20T03:38:37.840Z,66.66
2016-05-20T03:39:38.109Z,66.94
2016-05-20T03:40:37.861Z,66.75
2016-05-20T03:41:37.723Z,66.94
2016-05-20T03:42:37.898Z,67.33
2016-05-20T03:43:37.916Z,66.94
2016-05-20T03:44:37.934Z,66.75
2016-05-20T03:45:37.953Z,67.42
2016-05-20T03:46:37.970Z,66.85
2016-05-20T03:47:37.833Z,66.75
2016-05-20T03:48:38.007Z,67.04
2016-05-20T03:49:38.025Z,67.23
2016-05-20T03:50:38.044Z,67.42
2016-05-20T03:51:38.062Z,67.33
2016-05-20T03:52:37.925Z,67.52
2016-05-20T03:53:38.084Z,67.04
2016-05-20T03:54:38.117Z,67.04
2016-05-20T03:55:38.136Z,67.42
2016-05-20T03:56:37.983Z,67.52
2016-05-20T03:57:38.172Z,67.42
2016-05-20T03:58:38.175Z,67.61
2016-05-20T03:59:38.193Z,67.61
2016-05-20T04:00:38.211Z,67.9
2016-05-20T04:01:38.089Z,67.71
2016-05-20T04:02:38.249Z,67.52
2016-05-20T04:03:38.266Z,67.71
2016-05-20T04:04:38.285Z,67.52
2016-05-20T04:05:38.319Z,67.71
2016-05-20T04:06:38.307Z,67.33
2016-05-20T04:07:38.340Z,67.33
2016-05-20T04:08:38.357Z,66.75
2016-05-20T04:09:38.393Z,67.14
2016-05-20T04:10:38.238Z,66.94
2016-05-20T04:11:38.413Z,66.85
2016-05-20T04:12:38.447Z,66.66
2016-05-20T04:13:38.434Z,67.04
2016-05-20T04:14:38.468Z,66.85
2016-05-20T04:15:38.487Z,67.04
2016-05-20T04:16:38.505Z,66.94
2016-05-20T04:17:38.507Z,67.14
2016-05-20T04:18:38.526Z,67.04
2016-05-20T04:19:38.560Z,66.66
2016-05-20T04:20:38.562Z,66.56
2016-05-20T04:21:38.425Z,67.14
2016-05-20T04:22:38.599Z,66.66
2016-05-20T04:23:38.617Z,66.85
2016-05-20T04:24:39.136Z,66.6
2016-05-20T04:25:38.653Z,66.41
2016-05-20T04:26:38.672Z,65.74
2016-05-20T04:27:38.690Z,65.55
2016-05-20T04:28:38.708Z,64.5
2016-05-20T04:29:38.572Z,63.86
2016-05-20T04:30:38.761Z,63.67
2016-05-20T04:31:38.764Z,63.67
2016-05-20T04:32:38.766Z,62.46
2016-05-20T04:33:38.800Z,61.98
2016-05-20T04:34:38.819Z,61.03
2016-05-20T04:35:38.837Z,60.93
2016-05-20T04:36:38.855Z,61.06
2016-05-20T04:37:38.873Z,60.39
2016-05-20T04:38:38.893Z,60.1
2016-05-20T04:39:38.927Z,60.01
2016-05-20T04:40:38.929Z,59.81
2016-05-20T04:41:38.791Z,59.81
2016-05-20T04:42:38.965Z,59.24
2016-05-20T04:43:38.812Z,59.34
2016-05-20T04:44:39.002Z,59.56
2016-05-20T04:45:39.020Z,59.08
2016-05-20T04:46:39.023Z,58.61
2016-05-20T04:47:39.041Z,58.98
2016-05-20T04:48:39.075Z,58.32
2016-05-20T04:49:39.109Z,58.03
2016-05-20T04:50:39.111Z,57.36
2016-05-20T04:51:39.131Z,57.46
2016-05-20T04:52:38.992Z,57.39
2016-05-20T04:53:39.183Z,57.1
2016-05-20T04:54:39.389Z,56.53
2016-05-20T04:55:39.219Z,56.43
2016-05-20T04:56:39.221Z,56.72
2016-05-20T04:57:39.239Z,55.86
2016-05-20T04:58:39.242Z,55.86
2016-05-20T04:59:39.136Z,55.88
2016-05-20T05:00:39.154Z,56.15
2016-05-20T05:01:39.330Z,56.27
2016-05-20T05:02:39.346Z,56.27
2016-05-20T05:03:39.365Z,55.98
2016-05-20T05:04:39.384Z,55.98
2016-05-20T05:05:39.386Z,55.6
2016-05-20T05:06:39.421Z,56.08
2016-05-20T05:07:39.438Z,56.08
2016-05-20T05:08:39.457Z,55.98
2016-05-20T05:09:39.569Z,56.08
2016-05-20T05:10:39.493Z,55.6
2016-05-20T05:11:39.356Z,55.79
2016-05-20T05:12:39.529Z,55.44
2016-05-20T05:13:39.548Z,55.91
2016-05-20T05:14:39.567Z,55.63
2016-05-20T05:15:39.601Z,55.44
2016-05-20T05:16:39.620Z,55.15
2016-05-20T05:17:39.653Z,55.73
2016-05-20T05:18:39.656Z,56.3
2016-05-20T05:19:39.674Z,56.08
2016-05-20T05:20:39.693Z,55.82
2016-05-20T05:21:39.711Z,55.82
2016-05-20T05:22:39.728Z,55.53
2016-05-20T05:23:39.748Z,55.63
2016-05-20T05:24:39.781Z,55.24
2016-05-20T05:25:39.783Z,55.15
2016-05-20T05:26:39.817Z,55.34
2016-05-20T05:27:39.820Z,55.63
2016-05-20T05:28:39.855Z,55.63
2016-05-20T05:29:39.858Z,56.2
2016-05-20T05:30:39.891Z,56.1
2016-05-20T05:31:39.956Z,56.2
2016-05-20T05:32:39.959Z,56.2
2016-05-20T05:33:39.947Z,56.01
2016-05-20T05:34:39.996Z,56.39
2016-05-20T05:35:39.999Z,56.75
2016-05-20T05:36:40.063Z,57.06
2016-05-20T05:37:39.863Z,56.75
2016-05-20T05:38:40.085Z,57.23
2016-05-20T05:39:40.087Z,57.51
2016-05-20T05:40:40.138Z,57.61
2016-05-20T05:41:40.124Z,57.99
2016-05-20T05:42:40.126Z,57.99
2016-05-20T05:43:40.052Z,58.09
2016-05-20T05:44:40.069Z,58.09
2016-05-20T05:45:40.182Z,57.99
2016-05-20T05:46:40.215Z,58.63
2016-05-20T05:47:40.218Z,59.01
2016-05-20T05:48:40.251Z,59.4
2016-05-20T05:49:40.255Z,59.88
2016-05-20T05:50:40.289Z,59.11
2016-05-20T05:51:40.307Z,59.01
2016-05-20T05:52:40.325Z,59.05
2016-05-20T05:53:40.344Z,58.76
2016-05-20T05:54:40.237Z,58.47
2016-05-20T05:55:40.380Z,58.47
2016-05-20T05:56:40.384Z,58.09
2016-05-20T05:57:40.417Z,57.54
2016-05-20T05:58:40.449Z,57.26
2016-05-20T05:59:40.511Z,56.3
2016-05-20T06:00:40.574Z,56.77
2016-05-20T06:01:40.638Z,56.39
2016-05-20T06:02:40.700Z,56.2
2016-05-20T06:03:40.769Z,56.23
2016-05-20T06:04:40.804Z,56.71
2016-05-20T06:05:40.698Z,56.32
2016-05-20T06:06:40.873Z,56.23
2016-05-20T06:07:40.924Z,55.65
2016-05-20T06:08:40.955Z,55.85
2016-05-20T06:09:40.994Z,56.04
2016-05-20T06:10:41.002Z,56.32
2016-05-20T06:11:41.011Z,56.42
2016-05-20T06:12:41.035Z,56.13
2016-05-20T06:13:41.073Z,56.23
2016-05-20T06:14:41.110Z,55.65
2016-05-20T06:15:40.957Z,56.13
2016-05-20T06:16:41.150Z,56.13
2016-05-20T06:17:41.155Z,56.61
2016-05-20T06:18:41.175Z,55.85
2016-05-20T06:19:41.193Z,56.04
2016-05-20T06:20:41.214Z,56.77
2016-05-20T06:21:41.294Z,57.26
2016-05-20T06:22:41.283Z,57.16
2016-05-20T06:23:41.114Z,58.12
2016-05-20T06:24:41.694Z,57.54
2016-05-20T06:25:41.167Z,56.77
2016-05-20T06:26:41.342Z,56.77
2016-05-20T06:27:41.204Z,55.85
2016-05-20T06:28:41.395Z,55.65
2016-05-20T06:29:41.397Z,55.36
2016-05-20T06:30:41.431Z,55.56
2016-05-20T06:31:41.450Z,54.79
2016-05-20T06:32:41.468Z,54.89
2016-05-20T06:33:41.486Z,54.7
2016-05-20T06:34:41.505Z,54.41
2016-05-20T06:35:41.523Z,54.41
2016-05-20T06:36:41.542Z,54.5
2016-05-20T06:37:41.403Z,54.99
2016-05-20T06:38:41.578Z,54.7
2016-05-20T06:39:41.612Z,54.79
2016-05-20T06:40:41.614Z,54.79
2016-05-20T06:41:41.491Z,54.41
2016-05-20T06:42:41.667Z,54.7
2016-05-20T06:43:41.685Z,54.79
2016-05-20T06:44:41.704Z,55.34
2016-05-20T06:45:41.721Z,55.27
2016-05-20T06:46:41.740Z,54.89
2016-05-20T06:47:41.774Z,53.93
2016-05-20T06:48:41.776Z,54.41
2016-05-20T06:49:41.795Z,52.97
2016-05-20T06:50:41.845Z,53.16
2016-05-20T06:51:41.848Z,53.07
2016-05-20T06:52:41.850Z,53.16
2016-05-20T06:53:41.884Z,53.64
2016-05-20T06:54:42.012Z,53.45
2016-05-20T06:55:41.921Z,53.55
2016-05-20T06:56:41.939Z,53.36
2016-05-20T06:57:41.973Z,52.5
2016-05-20T06:58:41.976Z,51.92
2016-05-20T06:59:42.009Z,51.34
2016-05-20T07:00:42.028Z,51.28
2016-05-20T07:01:42.062Z,50.89
2016-05-20T07:02:42.064Z,49.93
2016-05-20T07:03:42.083Z,49
2016-05-20T07:04:42.100Z,48.71
2016-05-20T07:05:41.963Z,48.13
2016-05-20T07:06:42.138Z,48.61
2016-05-20T07:07:42.172Z,47.85
2016-05-20T07:08:42.189Z,48.33
2016-05-20T07:09:42.208Z,48.23
2016-05-20T07:10:42.227Z,47.97
2016-05-20T07:11:42.245Z,46.81
2016-05-20T07:12:42.279Z,46.72
2016-05-20T07:13:42.297Z,47.1
2016-05-20T07:14:42.316Z,47.1
2016-05-20T07:15:42.334Z,47.01
2016-05-20T07:16:42.336Z,47.17
2016-05-20T07:17:42.371Z,46.98
2016-05-20T07:18:42.389Z,47.08
2016-05-20T07:19:42.407Z,47.94
2016-05-20T07:20:42.425Z,47.66
2016-05-20T07:21:42.303Z,47.08
2016-05-20T07:22:42.321Z,46.89
2016-05-20T07:23:42.496Z,48.04
2016-05-20T07:24:42.561Z,47.17
2016-05-20T07:25:42.548Z,47.27
2016-05-20T07:26:42.567Z,47.49
2016-05-20T07:27:42.585Z,47.17
2016-05-20T07:28:42.447Z,47.97
2016-05-20T07:29:42.621Z,47.97
2016-05-20T07:30:42.671Z,47.97
2016-05-20T07:31:42.502Z,47.39
2016-05-20T07:32:42.723Z,47.39
2016-05-20T07:33:42.711Z,47.2
2016-05-20T07:34:42.729Z,47.39
2016-05-20T07:35:42.747Z,46.91
2016-05-20T07:36:42.764Z,47.1
2016-05-20T07:37:42.783Z,47.3
2016-05-20T07:38:42.817Z,46.81
2016-05-20T07:39:42.836Z,46.34
2016-05-20T07:40:42.838Z,45.3
2016-05-20T07:41:42.872Z,45.21
2016-05-20T07:42:42.735Z,45.21
2016-05-20T07:43:42.909Z,44.82
2016-05-20T07:44:42.943Z,44.63
2016-05-20T07:45:42.961Z,44.63
2016-05-20T07:46:42.964Z,44.92
2016-05-20T07:47:42.998Z,45.01
2016-05-20T07:48:43.016Z,45.11
2016-05-20T07:49:43.035Z,45.11
2016-05-20T07:50:43.069Z,44.82
2016-05-20T07:51:43.088Z,44.63
2016-05-20T07:52:42.948Z,44.54
2016-05-20T07:53:43.123Z,44.34
2016-05-20T07:54:43.392Z,44.27
2016-05-20T07:55:43.160Z,44.17
2016-05-20T07:56:43.178Z,43.98
2016-05-20T07:57:43.228Z,43.88
2016-05-20T07:58:43.231Z,43.7
2016-05-20T07:59:44.124Z,43.5
2016-05-20T08:00:43.267Z,43.02
2016-05-20T08:01:43.301Z,42.64
2016-05-20T08:02:43.335Z,41.99
2016-05-20T08:03:43.337Z,42.27
2016-05-20T08:04:43.340Z,42.47
2016-05-20T08:05:43.234Z,42.54
2016-05-20T08:06:43.236Z,43.31
2016-05-20T08:07:43.458Z,42.66
2016-05-20T08:08:43.476Z,42.56
2016-05-20T08:09:43.511Z,41.99
2016-05-20T08:10:44.060Z,41.31
2016-05-20T08:11:43.516Z,41.62
2016-05-20T08:12:43.581Z,42
2016-05-20T08:13:43.552Z,41.24
2016-05-20T08:14:43.586Z,41.24
2016-05-20T08:15:43.605Z,41.53
2016-05-20T08:16:43.623Z,40.95
2016-05-20T08:17:50.000Z,41.33
2016-05-20T08:18:43.660Z,41.43
2016-05-20T08:19:43.709Z,41.99
2016-05-20T08:20:43.680Z,41.89
2016-05-20T08:21:47.324Z,41.5
2016-05-20T08:22:44.060Z,42.27
2016-05-20T08:23:43.782Z,42.08
2016-05-20T08:24:43.816Z,42.85
2016-05-20T08:25:44.476Z,42.85
2016-05-20T08:26:43.712Z,42.08
2016-05-20T08:27:43.856Z,41.99
2016-05-20T08:28:43.717Z,41.53
2016-05-20T08:29:43.767Z,41.72
2016-05-20T08:30:43.910Z,42.2
2016-05-20T08:31:43.944Z,42.08
2016-05-20T08:32:43.948Z,42.08
2016-05-20T08:33:43.981Z,42.08
2016-05-20T08:34:44.390Z,42.08
2016-05-20T08:35:44.033Z,42.08
2016-05-20T08:36:46.083Z,41.62
2016-05-20T08:37:44.086Z,42.1
2016-05-20T08:38:44.103Z,42.39
2016-05-20T08:39:44.450Z,42.3
2016-05-20T08:40:44.141Z,41.91
2016-05-20T08:41:44.159Z,41.82
2016-05-20T08:42:44.178Z,42.1
2016-05-20T08:43:44.211Z,42.2
2016-05-20T08:44:44.229Z,41.43
2016-05-20T08:45:44.263Z,42.18
2016-05-20T08:46:44.266Z,42.18
2016-05-20T08:47:44.300Z,41.43
2016-05-20T08:48:44.319Z,41.24
2016-05-20T08:49:44.336Z,41.79
2016-05-20T08:50:44.371Z,41.99
2016-05-20T08:51:44.217Z,42.37
2016-05-20T08:52:44.391Z,42.73
2016-05-20T08:53:44.426Z,43.43
2016-05-20T08:54:44.287Z,43.21
2016-05-20T08:55:44.463Z,43.21
2016-05-20T08:56:44.480Z,43.6
2016-05-20T08:57:44.514Z,44.27
2016-05-20T08:58:45.096Z,44.37
2016-05-20T08:59:44.551Z,44.46
2016-05-20T09:00:44.429Z,44.46
2016-05-20T09:01:44.587Z,44.27
2016-05-20T09:02:44.621Z,44.17
2016-05-20T09:03:44.640Z,44.27
2016-05-20T09:04:44.706Z,44.27
2016-05-20T09:05:44.739Z,44.34
2016-05-20T09:06:44.710Z,44.73
2016-05-20T09:07:44.729Z,45.4
2016-05-20T09:08:44.794Z,45.68
2016-05-20T09:09:44.765Z,46.07
2016-05-20T09:10:44.909Z,45.88
2016-05-20T09:11:44.802Z,45.98
2016-05-20T09:12:44.836Z,46.07
2016-05-20T09:13:44.839Z,45.98
2016-05-20T09:14:44.872Z,45.78
2016-05-20T09:15:44.891Z,46.43
2016-05-20T09:16:44.909Z,46.55
2016-05-20T09:17:44.944Z,46.74
2016-05-20T09:18:45.525Z,46.91
2016-05-20T09:19:44.980Z,47.1
2016-05-20T09:20:44.999Z,46.53
2016-05-20T09:21:45.016Z,46.26
2016-05-20T09:22:45.035Z,46.36
2016-05-20T09:23:45.069Z,46.55
2016-05-20T09:24:44.930Z,47.03
2016-05-20T09:25:45.105Z,47.39
2016-05-20T09:26:45.123Z,47.01
2016-05-20T09:27:45.002Z,47.2
2016-05-20T09:28:45.020Z,47.1
2016-05-20T09:29:45.194Z,47.1
2016-05-20T09:30:45.213Z,47.49
2016-05-20T09:31:45.106Z,48.07
2016-05-20T09:32:45.249Z,47.77
2016-05-20T09:33:45.284Z,48.54
2016-05-20T09:34:45.301Z,48.07
2016-05-20T09:35:45.320Z,48.74
2016-05-20T09:36:45.322Z,49.57
2016-05-20T09:37:45.387Z,49.29
2016-05-20T09:38:45.234Z,49.12
2016-05-20T09:39:45.924Z,48.71
2016-05-20T09:40:45.270Z,49.19
2016-05-20T09:41:45.461Z,49
2016-05-20T09:42:45.464Z,49.96
2016-05-20T09:43:45.467Z,49.48
2016-05-20T09:44:45.500Z,50.15
2016-05-20T09:45:45.378Z,50.24
2016-05-20T09:46:45.536Z,50.15
2016-05-20T09:47:45.555Z,49.57
2016-05-20T09:48:45.589Z,50.15
2016-05-20T09:49:45.608Z,49.96
2016-05-20T09:50:45.625Z,50.24
2016-05-20T09:51:45.644Z,50.24
2016-05-20T09:52:45.663Z,50.34
2016-05-20T09:53:45.680Z,50.63
2016-05-20T09:54:45.715Z,50.43
2016-05-20T09:55:45.732Z,50.15
2016-05-20T09:56:45.736Z,49.98
2016-05-20T09:57:45.613Z,49.86
2016-05-20T09:58:46.943Z,50.17
2016-05-20T09:59:45.806Z,50.05
2016-05-20T10:00:45.809Z,49.96
2016-05-20T10:01:45.843Z,49.96
2016-05-20T10:02:45.862Z,50.46
2016-05-20T10:03:49.129Z,50.63
2016-05-20T10:04:45.913Z,51.01
2016-05-20T10:05:45.932Z,50.53
2016-05-20T10:06:45.951Z,49.88
2016-05-20T10:08:17.218Z,49.98
2016-05-20T10:08:47.221Z,50.17
2016-05-20T10:09:46.380Z,49.98
2016-05-20T10:10:46.039Z,49.88
2016-05-20T10:11:46.057Z,49.88
2016-05-20T10:12:46.059Z,49.41
2016-05-20T10:13:47.031Z,49.31
2016-05-20T10:14:46.112Z,49.24
2016-05-20T10:15:46.146Z,49.91
2016-05-20T10:16:46.164Z,49.24
2016-05-20T10:17:46.183Z,48.76
2016-05-20T10:18:47.450Z,48.66
2016-05-20T10:19:46.219Z,48.28
2016-05-20T10:20:46.300Z,48.28
2016-05-20T10:21:46.255Z,48.02
2016-05-20T10:22:46.290Z,48.59
2016-05-20T10:23:47.214Z,48.3
2016-05-20T10:24:46.171Z,47.82
2016-05-20T10:25:46.204Z,48.21
2016-05-20T10:26:46.379Z,47.34
2016-05-20T10:27:46.396Z,47.15
2016-05-20T10:28:47.759Z,47.44
2016-05-20T10:29:46.434Z,47.82
2016-05-20T10:30:46.468Z,47.92
2016-05-20T10:31:46.485Z,47.82
2016-05-20T10:32:46.504Z,48.4
2016-05-20T10:33:46.898Z,48.79
2016-05-20T10:34:46.557Z,49.07
2016-05-20T10:35:46.559Z,48.95
2016-05-20T10:36:46.578Z,48.76
2016-05-20T10:37:46.596Z,49.33
2016-05-20T10:38:47.301Z,49.05
2016-05-20T10:39:46.742Z,48.47
2016-05-20T10:40:46.651Z,48.47
2016-05-20T10:41:46.684Z,48.57
2016-05-20T10:42:46.548Z,49.24
2016-05-20T10:43:47.189Z,49.05
2016-05-20T10:44:46.756Z,49.72
2016-05-20T10:45:46.774Z,49.43
2016-05-20T10:46:46.792Z,49.33
2016-05-20T10:47:46.826Z,49.43
2016-05-20T10:48:47.486Z,49.62
2016-05-20T10:49:46.863Z,49.24
2016-05-20T10:50:46.880Z,49.91
2016-05-20T10:51:46.931Z,50.29
2016-05-20T10:52:46.917Z,50.1
2016-05-20T10:53:49.530Z,49.82
2016-05-20T10:54:47.516Z,49.82
2016-05-20T10:55:46.988Z,48.95
2016-05-20T10:56:46.866Z,49.15
2016-05-20T10:57:47.025Z,49.93
2016-05-20T10:58:46.888Z,50.03
2016-05-20T10:59:47.060Z,50.03
2016-05-20T11:00:47.079Z,49.84
2016-05-20T11:01:47.113Z,49.84
2016-05-20T11:02:47.132Z,49.17
2016-05-20T11:03:47.151Z,49.46
2016-05-20T11:04:47.153Z,48.97
2016-05-20T11:05:47.202Z,49.26
2016-05-20T11:06:47.065Z,49.26
2016-05-20T11:07:47.254Z,48.59
2016-05-20T11:08:47.320Z,49.46
2016-05-20T11:09:47.276Z,49.07
2016-05-20T11:10:47.216Z,49.57
2016-05-20T11:11:47.391Z,49.19
2016-05-20T11:12:47.346Z,48.52
2016-05-20T11:13:47.208Z,48.13
2016-05-20T11:14:47.398Z,48.61
2016-05-20T11:15:47.261Z,48.61
2016-05-20T11:16:47.420Z,48.13
2016-05-20T11:17:47.453Z,48.04
2016-05-20T11:18:47.472Z,47.2
2016-05-20T11:19:47.490Z,47.3
2016-05-20T11:20:47.539Z,47.2
2016-05-20T11:21:47.386Z,47.3
2016-05-20T11:22:47.591Z,46.81
2016-05-20T11:23:47.579Z,46.36
2016-05-20T11:24:47.613Z,45.87
2016-05-20T11:25:47.631Z,45.59
2016-05-20T11:26:47.633Z,45.51
2016-05-20T11:27:47.668Z,45.13
2016-05-20T11:28:47.718Z,44.84
2016-05-20T11:29:47.721Z,45.03
2016-05-20T11:30:47.739Z,44.57
2016-05-20T11:31:47.772Z,44.28
2016-05-20T11:32:47.791Z,43.99
2016-05-20T11:33:47.793Z,43.54
2016-05-20T11:34:47.843Z,43.44
2016-05-20T11:35:47.862Z,43.05
2016-05-20T11:36:47.879Z,42.76
2016-05-20T11:37:47.913Z,41.82
2016-05-20T11:38:47.962Z,41.92
2016-05-20T11:39:47.981Z,42.21
2016-05-20T11:40:47.953Z,42.49
2016-05-20T11:41:47.987Z,42.11
2016-05-20T11:42:48.005Z,42.57
2016-05-20T11:43:48.040Z,42.4
2016-05-20T11:44:48.057Z,42.86
2016-05-20T11:45:48.091Z,42.79
2016-05-20T11:46:48.109Z,42.97
2016-05-20T11:47:48.128Z,43.05
2016-05-20T11:48:48.147Z,42.57
2016-05-20T11:49:48.164Z,43.15
2016-05-20T11:50:48.184Z,43.34
2016-05-20T11:51:48.060Z,43.99
2016-05-20T11:52:48.235Z,44.48
2016-05-20T11:53:48.269Z,44.93
2016-05-20T11:54:48.303Z,44.84
2016-05-20T11:55:48.166Z,45.51
2016-05-20T11:57:38.777Z,46.95
2016-05-20T11:57:51.686Z,46.84
2016-05-20T11:58:51.720Z,47.13
2016-05-20T11:59:51.738Z,47.13
2016-05-20T12:00:51.772Z,46.84
2016-05-20T12:01:51.760Z,46.64
2016-05-20T12:02:51.652Z,47.13
2016-05-20T12:03:51.827Z,47.51
2016-05-20T12:04:51.908Z,47.22
2016-05-20T12:05:51.863Z,47.31
2016-05-20T12:06:51.882Z,47.61
2016-05-20T12:07:51.900Z,47.13
2016-05-20T12:08:51.935Z,47.22
2016-05-20T12:09:52.171Z,47.13
2016-05-20T12:10:51.971Z,47.31
2016-05-20T12:11:52.005Z,47.31
2016-05-20T12:12:52.024Z,48.18
2016-05-20T12:13:52.042Z,48.66
2016-05-20T12:14:52.075Z,47.8
2016-05-20T12:15:52.078Z,48.47
2016-05-20T12:16:52.112Z,48.38
2016-05-20T12:17:52.131Z,48.66
2016-05-20T12:18:52.164Z,48.64
2016-05-20T12:19:52.183Z,48.25
2016-05-20T12:20:52.200Z,48.74
2016-05-20T12:21:52.219Z,48.25
2016-05-20T12:22:52.253Z,48.57
2016-05-20T12:23:52.287Z,47.89
2016-05-20T12:24:52.822Z,48.57
2016-05-20T12:25:52.605Z,48.57
2016-05-20T12:26:52.342Z,48.47
2016-05-20T12:27:52.345Z,47.97
2016-05-20T12:28:52.363Z,48.08
2016-05-20T12:29:52.397Z,48.18
2016-05-20T12:30:52.416Z,46.93
2016-05-20T12:31:52.433Z,47.03
2016-05-20T12:32:52.468Z,47.44
2016-05-20T12:33:52.486Z,46.95
2016-05-20T12:34:52.521Z,46.67
2016-05-20T12:35:52.523Z,45.92
2016-05-20T12:36:52.557Z,46.01
2016-05-20T12:37:52.574Z,45.63
2016-05-20T12:38:52.594Z,45.34
2016-05-20T12:39:52.627Z,45.73
2016-05-20T12:40:52.645Z,45.61
2016-05-20T12:41:52.665Z,45.9
2016-05-20T12:42:52.526Z,45.99
2016-05-20T12:43:52.732Z,45.9
2016-05-20T12:44:52.750Z,46.47
2016-05-20T12:45:52.753Z,46.86
2016-05-20T12:46:52.786Z,47.05
2016-05-20T12:47:52.805Z,47.24
2016-05-20T12:48:52.823Z,47.34
2016-05-20T12:49:55.889Z,46.55
2016-05-20T12:50:52.860Z,46.95
2016-05-20T12:51:59.175Z,46.86
2016-05-20T12:52:52.912Z,47.05
2016-05-20T12:54:05.665Z,46.95
2016-05-20T12:54:52.965Z,46.95
2016-05-20T12:56:12.185Z,47.61